sensor_id;sensor_type;location;lat;lon;timestamp;pressure;altitude;pressure_sealevel;temperature;humidity
55149;BME280;49539;48.160;11.530;2022-11-27T00:01:45;97021.88;;;1.05;100.00
55149;BME280;49539;48.160;11.530;2022-11-27T00:04:11;97020.72;;;0.94;100.00
55149;BME280;49539;48.160;11.530;2022-11-27T00:06:37;97016.34;;;0.89;100.00
55149;BME280;49539;48.160;11.530;2022-11-27T00:09:04;97021.44;;;0.82;100.00
55149;BME280;49539;48.160;11.530;2022-11-27T00:11:30;97020.00;;;0.85;100.00
55149;BME280;49539;48.160;11.530;2022-11-27T00:13:56;97018.97;;;0.77;100.00
55149;BME280;49539;48.160;11.530;2022-11-27T00:16:23;97024.03;;;0.79;100.00
55149;BME280;49539;48.160;11.530;2022-11-27T00:18:50;97029.50;;;0.82;100.00
55149;BME280;49539;48.160;11.530;2022-11-27T00:21:16;97027.38;;;0.76;100.00
55149;BME280;49539;48.160;11.530;2022-11-27T00:23:43;97022.06;;;0.67;100.00
55149;BME280;49539;48.160;11.530;2022-11-27T00:26:08;97025.66;;;0.71;100.00
55149;BME280;49539;48.160;11.530;2022-11-27T00:28:33;97024.81;;;0.79;100.00
55149;BME280;49539;48.160;11.530;2022-11-27T00:31:04;97030.16;;;0.79;100.00
55149;BME280;49539;48.160;11.530;2022-11-27T00:33:30;97032.19;;;0.82;100.00
55149;BME280;49539;48.160;11.530;2022-11-27T00:35:55;97024.41;;;0.68;100.00
55149;BME280;49539;48.160;11.530;2022-11-27T00:38:21;97025.41;;;0.64;100.00
55149;BME280;49539;48.160;11.530;2022-11-27T00:40:46;97016.25;;;0.65;100.00
55149;BME280;49539;48.160;11.530;2022-11-27T00:43:12;97007.88;;;0.66;100.00
55149;BME280;49539;48.160;11.530;2022-11-27T00:45:37;97000.22;;;0.56;100.00
55149;BME280;49539;48.160;11.530;2022-11-27T00:48:03;96994.44;;;0.54;100.00
55149;BME280;49539;48.160;11.530;2022-11-27T00:50:28;96986.38;;;0.54;100.00
55149;BME280;49539;48.160;11.530;2022-11-27T00:52:56;96991.88;;;0.58;100.00
55149;BME280;49539;48.160;11.530;2022-11-27T00:55:21;96993.75;;;0.57;100.00
55149;BME280;49539;48.160;11.530;2022-11-27T00:57:47;96996.13;;;0.59;100.00
55149;BME280;49539;48.160;11.530;2022-11-27T01:00:12;96990.41;;;0.60;100.00
55149;BME280;49539;48.160;11.530;2022-11-27T01:02:38;96987.16;;;0.55;100.00
55149;BME280;49539;48.160;11.530;2022-11-27T01:05:03;96988.81;;;0.47;100.00
55149;BME280;49539;48.160;11.530;2022-11-27T01:07:28;96987.38;;;0.49;100.00
55149;BME280;49539;48.160;11.530;2022-11-27T01:09:54;96986.94;;;0.60;100.00
55149;BME280;49539;48.160;11.530;2022-11-27T01:12:19;96983.50;;;0.59;100.00
55149;BME280;49539;48.160;11.530;2022-11-27T01:14:44;96976.78;;;0.65;100.00
55149;BME280;49539;48.160;11.530;2022-11-27T01:17:10;96980.72;;;0.68;100.00
55149;BME280;49539;48.160;11.530;2022-11-27T01:19:36;96972.56;;;0.64;100.00
55149;BME280;49539;48.160;11.530;2022-11-27T01:22:01;96973.53;;;0.60;100.00
55149;BME280;49539;48.160;11.530;2022-11-27T01:24:26;96973.88;;;0.58;100.00
55149;BME280;49539;48.160;11.530;2022-11-27T01:26:51;96976.69;;;0.62;100.00
55149;BME280;49539;48.160;11.530;2022-11-27T01:29:17;96969.19;;;0.55;100.00
55149;BME280;49539;48.160;11.530;2022-11-27T01:31:42;96970.81;;;0.47;100.00
55149;BME280;49539;48.160;11.530;2022-11-27T01:34:11;96966.09;;;0.44;100.00
55149;BME280;49539;48.160;11.530;2022-11-27T01:36:37;96962.84;;;0.39;100.00
55149;BME280;49539;48.160;11.530;2022-11-27T01:39:02;96958.75;;;0.41;100.00
55149;BME280;49539;48.160;11.530;2022-11-27T01:41:29;96968.13;;;0.47;100.00
55149;BME280;49539;48.160;11.530;2022-11-27T01:46:46;96963.88;;;0.46;100.00
55149;BME280;49539;48.160;11.530;2022-11-27T01:52:00;96966.50;;;0.55;100.00
55149;BME280;49539;48.160;11.530;2022-11-27T01:54:28;96959.75;;;0.49;100.00
55149;BME280;49539;48.160;11.530;2022-11-27T01:57:01;96960.03;;;0.35;100.00
55149;BME280;49539;48.160;11.530;2022-11-27T01:59:28;96962.44;;;0.28;100.00
55149;BME280;49539;48.160;11.530;2022-11-27T02:01:53;96957.69;;;0.34;100.00
55149;BME280;49539;48.160;11.530;2022-11-27T02:04:19;96950.81;;;0.24;100.00
55149;BME280;49539;48.160;11.530;2022-11-27T02:06:45;96949.72;;;0.25;100.00
55149;BME280;49539;48.160;11.530;2022-11-27T02:09:10;96948.47;;;0.22;100.00
55149;BME280;49539;48.160;11.530;2022-11-27T02:11:42;96940.81;;;0.12;100.00
55149;BME280;49539;48.160;11.530;2022-11-27T02:14:16;96945.22;;;0.17;100.00
55149;BME280;49539;48.160;11.530;2022-11-27T02:17:06;96935.59;;;0.16;100.00
55149;BME280;49539;48.160;11.530;2022-11-27T02:30:12;96918.44;;;0.17;100.00
55149;BME280;49539;48.160;11.530;2022-11-27T02:32:56;96915.91;;;0.12;100.00
55149;BME280;49539;48.160;11.530;2022-11-27T02:35:30;96915.13;;;0.11;100.00
55149;BME280;49539;48.160;11.530;2022-11-27T02:38:16;96911.69;;;0.11;100.00
55149;BME280;49539;48.160;11.530;2022-11-27T02:40:49;96911.34;;;0.12;100.00
55149;BME280;49539;48.160;11.530;2022-11-27T02:45:43;96896.53;;;0.15;100.00
55149;BME280;49539;48.160;11.530;2022-11-27T02:48:09;96904.69;;;0.18;100.00
55149;BME280;49539;48.160;11.530;2022-11-27T02:50:37;96906.91;;;0.16;100.00
55149;BME280;49539;48.160;11.530;2022-11-27T02:53:04;96895.53;;;0.19;100.00
55149;BME280;49539;48.160;11.530;2022-11-27T02:55:33;96890.94;;;0.20;100.00
55149;BME280;49539;48.160;11.530;2022-11-27T02:57:58;96882.47;;;0.18;100.00
55149;BME280;49539;48.160;11.530;2022-11-27T03:00:25;96870.63;;;0.19;100.00
55149;BME280;49539;48.160;11.530;2022-11-27T03:02:53;96868.72;;;0.19;100.00
55149;BME280;49539;48.160;11.530;2022-11-27T03:05:21;96868.88;;;0.23;100.00
55149;BME280;49539;48.160;11.530;2022-11-27T03:07:51;96864.63;;;0.22;100.00
55149;BME280;49539;48.160;11.530;2022-11-27T03:10:35;96859.06;;;0.27;100.00
55149;BME280;49539;48.160;11.530;2022-11-27T03:13:04;96856.50;;;0.31;100.00
55149;BME280;49539;48.160;11.530;2022-11-27T03:15:36;96858.28;;;0.27;100.00
55149;BME280;49539;48.160;11.530;2022-11-27T03:18:06;96850.56;;;0.25;100.00
55149;BME280;49539;48.160;11.530;2022-11-27T03:20:38;96861.28;;;0.25;100.00
55149;BME280;49539;48.160;11.530;2022-11-27T03:23:05;96863.50;;;0.23;100.00
55149;BME280;49539;48.160;11.530;2022-11-27T03:25:30;96858.16;;;0.23;100.00
55149;BME280;49539;48.160;11.530;2022-11-27T03:28:03;96857.94;;;0.28;100.00
55149;BME280;49539;48.160;11.530;2022-11-27T03:30:30;96859.84;;;0.28;100.00
55149;BME280;49539;48.160;11.530;2022-11-27T03:32:55;96851.78;;;0.28;100.00
55149;BME280;49539;48.160;11.530;2022-11-27T03:35:23;96846.44;;;0.28;100.00
55149;BME280;49539;48.160;11.530;2022-11-27T03:37:48;96844.53;;;0.28;100.00
55149;BME280;49539;48.160;11.530;2022-11-27T03:40:14;96844.88;;;0.27;100.00
55149;BME280;49539;48.160;11.530;2022-11-27T03:47:58;96830.81;;;0.30;100.00
55149;BME280;49539;48.160;11.530;2022-11-27T03:55:41;96827.19;;;0.13;100.00
55149;BME280;49539;48.160;11.530;2022-11-27T03:58:18;96823.41;;;0.14;100.00
55149;BME280;49539;48.160;11.530;2022-11-27T04:00:46;96828.88;;;0.18;100.00
55149;BME280;49539;48.160;11.530;2022-11-27T04:03:12;96827.31;;;0.17;100.00
55149;BME280;49539;48.160;11.530;2022-11-27T04:05:38;96825.03;;;0.07;100.00
55149;BME280;49539;48.160;11.530;2022-11-27T04:08:03;96831.31;;;0.11;100.00
55149;BME280;49539;48.160;11.530;2022-11-27T04:10:29;96816.09;;;0.03;100.00
55149;BME280;49539;48.160;11.530;2022-11-27T04:12:54;96825.94;;;0.11;100.00
55149;BME280;49539;48.160;11.530;2022-11-27T04:15:19;96832.72;;;0.08;100.00
55149;BME280;49539;48.160;11.530;2022-11-27T04:17:45;96827.47;;;-0.01;100.00
55149;BME280;49539;48.160;11.530;2022-11-27T04:20:13;96825.78;;;-0.05;100.00
55149;BME280;49539;48.160;11.530;2022-11-27T04:22:39;96823.31;;;-0.10;100.00
55149;BME280;49539;48.160;11.530;2022-11-27T04:25:05;96824.88;;;-0.09;100.00
55149;BME280;49539;48.160;11.530;2022-11-27T04:27:30;96830.47;;;-0.02;100.00
55149;BME280;49539;48.160;11.530;2022-11-27T04:29:56;96836.31;;;0.00;100.00
55149;BME280;49539;48.160;11.530;2022-11-27T04:32:21;96836.53;;;0.07;100.00
55149;BME280;49539;48.160;11.530;2022-11-27T04:34:46;96833.72;;;0.04;100.00
55149;BME280;49539;48.160;11.530;2022-11-27T04:37:12;96828.50;;;0.07;100.00
55149;BME280;49539;48.160;11.530;2022-11-27T04:39:37;96823.22;;;-0.02;100.00
55149;BME280;49539;48.160;11.530;2022-11-27T04:42:02;96830.34;;;-0.06;100.00
55149;BME280;49539;48.160;11.530;2022-11-27T04:44:28;96820.28;;;-0.09;100.00
55149;BME280;49539;48.160;11.530;2022-11-27T04:46:53;96821.63;;;-0.15;100.00
55149;BME280;49539;48.160;11.530;2022-11-27T04:49:18;96824.50;;;-0.20;100.00
55149;BME280;49539;48.160;11.530;2022-11-27T04:51:44;96824.81;;;-0.21;100.00
55149;BME280;49539;48.160;11.530;2022-11-27T04:54:09;96833.22;;;-0.11;100.00
55149;BME280;49539;48.160;11.530;2022-11-27T04:56:35;96831.91;;;-0.05;100.00
55149;BME280;49539;48.160;11.530;2022-11-27T04:59:00;96835.56;;;-0.09;100.00
55149;BME280;49539;48.160;11.530;2022-11-27T05:01:25;96841.06;;;-0.06;100.00
55149;BME280;49539;48.160;11.530;2022-11-27T05:03:51;96835.97;;;0.02;100.00
55149;BME280;49539;48.160;11.530;2022-11-27T05:06:16;96837.25;;;-0.05;100.00
55149;BME280;49539;48.160;11.530;2022-11-27T05:08:43;96834.22;;;-0.15;100.00
55149;BME280;49539;48.160;11.530;2022-11-27T05:11:12;96835.44;;;-0.13;100.00
55149;BME280;49539;48.160;11.530;2022-11-27T05:13:37;96831.00;;;-0.09;100.00
55149;BME280;49539;48.160;11.530;2022-11-27T05:16:03;96825.63;;;-0.09;100.00
55149;BME280;49539;48.160;11.530;2022-11-27T05:18:28;96822.06;;;-0.13;100.00
55149;BME280;49539;48.160;11.530;2022-11-27T05:21:01;96819.28;;;-0.16;100.00
55149;BME280;49539;48.160;11.530;2022-11-27T05:23:27;96817.03;;;-0.14;100.00
55149;BME280;49539;48.160;11.530;2022-11-27T05:25:52;96813.09;;;-0.17;100.00
55149;BME280;49539;48.160;11.530;2022-11-27T05:28:18;96829.19;;;-0.17;100.00
55149;BME280;49539;48.160;11.530;2022-11-27T05:30:44;96827.47;;;-0.21;100.00
55149;BME280;49539;48.160;11.530;2022-11-27T05:33:11;96836.50;;;-0.26;100.00
55149;BME280;49539;48.160;11.530;2022-11-27T05:35:36;96836.56;;;-0.14;100.00
55149;BME280;49539;48.160;11.530;2022-11-27T05:38:01;96831.97;;;-0.13;100.00
55149;BME280;49539;48.160;11.530;2022-11-27T05:40:26;96827.97;;;-0.19;100.00
55149;BME280;49539;48.160;11.530;2022-11-27T05:42:52;96829.19;;;-0.17;100.00
55149;BME280;49539;48.160;11.530;2022-11-27T05:45:17;96821.69;;;-0.23;100.00
55149;BME280;49539;48.160;11.530;2022-11-27T05:47:42;96823.97;;;-0.34;100.00
55149;BME280;49539;48.160;11.530;2022-11-27T05:50:08;96823.19;;;-0.35;100.00
55149;BME280;49539;48.160;11.530;2022-11-27T05:52:33;96816.47;;;-0.41;100.00
55149;BME280;49539;48.160;11.530;2022-11-27T05:54:58;96818.34;;;-0.41;100.00
55149;BME280;49539;48.160;11.530;2022-11-27T05:57:23;96820.31;;;-0.51;100.00
55149;BME280;49539;48.160;11.530;2022-11-27T05:59:49;96815.22;;;-0.43;100.00
55149;BME280;49539;48.160;11.530;2022-11-27T06:02:14;96808.25;;;-0.36;100.00
55149;BME280;49539;48.160;11.530;2022-11-27T06:04:39;96811.06;;;-0.32;100.00
55149;BME280;49539;48.160;11.530;2022-11-27T06:07:04;96802.03;;;-0.48;100.00
55149;BME280;49539;48.160;11.530;2022-11-27T06:09:30;96809.88;;;-0.43;100.00
55149;BME280;49539;48.160;11.530;2022-11-27T06:11:55;96809.88;;;-0.43;100.00
55149;BME280;49539;48.160;11.530;2022-11-27T06:14:20;96800.47;;;-0.50;100.00
55149;BME280;49539;48.160;11.530;2022-11-27T06:16:46;96801.38;;;-0.45;100.00
55149;BME280;49539;48.160;11.530;2022-11-27T06:19:11;96800.00;;;-0.52;100.00
55149;BME280;49539;48.160;11.530;2022-11-27T06:21:36;96801.56;;;-0.51;100.00
55149;BME280;49539;48.160;11.530;2022-11-27T06:24:02;96797.91;;;-0.46;100.00
55149;BME280;49539;48.160;11.530;2022-11-27T06:26:28;96795.84;;;-0.40;100.00
55149;BME280;49539;48.160;11.530;2022-11-27T06:28:54;96807.00;;;-0.38;100.00
55149;BME280;49539;48.160;11.530;2022-11-27T06:31:20;96812.06;;;-0.45;100.00
55149;BME280;49539;48.160;11.530;2022-11-27T06:33:47;96810.66;;;-0.64;100.00
55149;BME280;49539;48.160;11.530;2022-11-27T06:36:13;96808.94;;;-0.68;100.00
55149;BME280;49539;48.160;11.530;2022-11-27T06:38:39;96804.53;;;-0.64;100.00
55149;BME280;49539;48.160;11.530;2022-11-27T06:41:15;96813.66;;;-0.65;100.00
55149;BME280;49539;48.160;11.530;2022-11-27T06:43:40;96810.91;;;-0.57;100.00
55149;BME280;49539;48.160;11.530;2022-11-27T06:46:06;96805.50;;;-0.48;100.00
55149;BME280;49539;48.160;11.530;2022-11-27T06:48:32;96807.13;;;-0.56;100.00
55149;BME280;49539;48.160;11.530;2022-11-27T06:50:58;96799.59;;;-0.62;100.00
55149;BME280;49539;48.160;11.530;2022-11-27T06:53:24;96798.13;;;-0.72;100.00
55149;BME280;49539;48.160;11.530;2022-11-27T06:55:49;96788.00;;;-0.66;100.00
55149;BME280;49539;48.160;11.530;2022-11-27T06:58:14;96797.97;;;-0.55;100.00
55149;BME280;49539;48.160;11.530;2022-11-27T07:00:40;96792.84;;;-0.60;100.00
55149;BME280;49539;48.160;11.530;2022-11-27T07:03:05;96791.13;;;-0.64;100.00
55149;BME280;49539;48.160;11.530;2022-11-27T07:05:31;96790.72;;;-0.54;100.00
55149;BME280;49539;48.160;11.530;2022-11-27T07:07:57;96789.09;;;-0.46;100.00
55149;BME280;49539;48.160;11.530;2022-11-27T07:10:22;96788.41;;;-0.56;100.00
55149;BME280;49539;48.160;11.530;2022-11-27T07:12:47;96782.69;;;-0.54;100.00
55149;BME280;49539;48.160;11.530;2022-11-27T07:15:13;96787.91;;;-0.58;100.00
55149;BME280;49539;48.160;11.530;2022-11-27T07:17:38;96786.91;;;-0.44;100.00
55149;BME280;49539;48.160;11.530;2022-11-27T07:20:03;96783.81;;;-0.34;100.00
55149;BME280;49539;48.160;11.530;2022-11-27T07:22:32;96783.59;;;-0.29;100.00
55149;BME280;49539;48.160;11.530;2022-11-27T07:24:58;96786.91;;;-0.44;100.00
55149;BME280;49539;48.160;11.530;2022-11-27T07:27:30;96781.97;;;-0.42;100.00
55149;BME280;49539;48.160;11.530;2022-11-27T07:29:55;96779.44;;;-0.39;100.00
55149;BME280;49539;48.160;11.530;2022-11-27T07:32:21;96781.59;;;-0.32;100.00
55149;BME280;49539;48.160;11.530;2022-11-27T07:34:46;96787.72;;;-0.32;100.00
55149;BME280;49539;48.160;11.530;2022-11-27T07:37:11;96786.22;;;-0.20;100.00
55149;BME280;49539;48.160;11.530;2022-11-27T07:39:36;96788.09;;;-0.21;100.00
55149;BME280;49539;48.160;11.530;2022-11-27T07:42:02;96781.88;;;-0.13;100.00
55149;BME280;49539;48.160;11.530;2022-11-27T07:44:27;96780.91;;;-0.08;100.00
55149;BME280;49539;48.160;11.530;2022-11-27T07:46:52;96771.88;;;-0.04;100.00
55149;BME280;49539;48.160;11.530;2022-11-27T07:49:17;96762.16;;;-0.08;100.00
55149;BME280;49539;48.160;11.530;2022-11-27T07:51:43;96757.16;;;0.03;100.00
55149;BME280;49539;48.160;11.530;2022-11-27T07:54:09;96758.72;;;0.04;100.00
55149;BME280;49539;48.160;11.530;2022-11-27T07:56:34;96760.78;;;0.19;100.00
55149;BME280;49539;48.160;11.530;2022-11-27T07:58:59;96755.41;;;0.19;100.00
55149;BME280;49539;48.160;11.530;2022-11-27T08:01:25;96757.78;;;0.33;100.00
55149;BME280;49539;48.160;11.530;2022-11-27T08:03:50;96759.25;;;0.42;100.00
55149;BME280;49539;48.160;11.530;2022-11-27T08:06:16;96759.50;;;0.49;100.00
55149;BME280;49539;48.160;11.530;2022-11-27T08:08:42;96765.75;;;0.54;100.00
55149;BME280;49539;48.160;11.530;2022-11-27T08:11:21;96762.72;;;0.55;100.00
55149;BME280;49539;48.160;11.530;2022-11-27T08:13:47;96759.16;;;0.63;100.00
55149;BME280;49539;48.160;11.530;2022-11-27T08:16:13;96759.69;;;0.57;100.00
55149;BME280;49539;48.160;11.530;2022-11-27T08:18:39;96757.03;;;0.57;100.00
55149;BME280;49539;48.160;11.530;2022-11-27T08:21:05;96741.03;;;0.72;100.00
55149;BME280;49539;48.160;11.530;2022-11-27T08:23:30;96744.75;;;0.80;100.00
55149;BME280;49539;48.160;11.530;2022-11-27T08:25:55;96744.50;;;0.85;100.00
55149;BME280;49539;48.160;11.530;2022-11-27T08:28:21;96734.09;;;0.96;100.00
55149;BME280;49539;48.160;11.530;2022-11-27T08:30:53;96726.59;;;1.02;100.00
55149;BME280;49539;48.160;11.530;2022-11-27T08:33:19;96732.84;;;1.06;100.00
55149;BME280;49539;48.160;11.530;2022-11-27T08:35:47;96727.03;;;1.16;100.00
55149;BME280;49539;48.160;11.530;2022-11-27T08:38:13;96736.19;;;1.15;100.00
55149;BME280;49539;48.160;11.530;2022-11-27T08:40:38;96734.16;;;1.24;100.00
55149;BME280;49539;48.160;11.530;2022-11-27T08:43:03;96736.63;;;1.17;100.00
55149;BME280;49539;48.160;11.530;2022-11-27T08:45:29;96746.59;;;1.16;100.00
55149;BME280;49539;48.160;11.530;2022-11-27T08:47:54;96743.53;;;1.30;100.00
55149;BME280;49539;48.160;11.530;2022-11-27T08:50:19;96744.06;;;1.36;100.00
55149;BME280;49539;48.160;11.530;2022-11-27T08:52:44;96730.28;;;1.49;100.00
55149;BME280;49539;48.160;11.530;2022-11-27T08:55:11;96722.88;;;1.59;100.00
55149;BME280;49539;48.160;11.530;2022-11-27T08:57:37;96723.53;;;1.56;100.00
55149;BME280;49539;48.160;11.530;2022-11-27T09:00:02;96731.56;;;1.68;100.00
55149;BME280;49539;48.160;11.530;2022-11-27T09:02:28;96729.06;;;1.75;100.00
55149;BME280;49539;48.160;11.530;2022-11-27T09:04:53;96722.72;;;1.67;100.00
55149;BME280;49539;48.160;11.530;2022-11-27T09:07:18;96732.06;;;1.86;100.00
55149;BME280;49539;48.160;11.530;2022-11-27T09:09:44;96730.41;;;1.81;100.00
55149;BME280;49539;48.160;11.530;2022-11-27T09:12:09;96726.16;;;1.96;100.00
55149;BME280;49539;48.160;11.530;2022-11-27T09:14:34;96720.53;;;2.01;100.00
55149;BME280;49539;48.160;11.530;2022-11-27T09:17:00;96719.03;;;1.88;100.00
55149;BME280;49539;48.160;11.530;2022-11-27T09:19:25;96713.53;;;2.12;100.00
55149;BME280;49539;48.160;11.530;2022-11-27T09:21:50;96716.03;;;2.21;100.00
55149;BME280;49539;48.160;11.530;2022-11-27T09:24:15;96711.53;;;2.25;100.00
55149;BME280;49539;48.160;11.530;2022-11-27T09:26:41;96709.81;;;2.17;100.00
55149;BME280;49539;48.160;11.530;2022-11-27T09:29:08;96712.84;;;2.31;100.00
55149;BME280;49539;48.160;11.530;2022-11-27T09:31:34;96705.56;;;2.47;100.00
55149;BME280;49539;48.160;11.530;2022-11-27T09:33:59;96709.53;;;2.54;100.00
55149;BME280;49539;48.160;11.530;2022-11-27T09:36:24;96707.47;;;2.47;100.00
55149;BME280;49539;48.160;11.530;2022-11-27T09:38:51;96699.91;;;2.53;100.00
55149;BME280;49539;48.160;11.530;2022-11-27T09:43:44;96682.53;;;2.82;100.00
55149;BME280;49539;48.160;11.530;2022-11-27T09:46:12;96681.53;;;2.90;100.00
55149;BME280;49539;48.160;11.530;2022-11-27T09:48:41;96682.59;;;2.85;100.00
55149;BME280;49539;48.160;11.530;2022-11-27T09:51:14;96678.25;;;2.96;100.00
55149;BME280;49539;48.160;11.530;2022-11-27T09:53:46;96666.28;;;3.13;100.00
55149;BME280;49539;48.160;11.530;2022-11-27T09:56:12;96654.66;;;3.29;100.00
55149;BME280;49539;48.160;11.530;2022-11-27T09:58:50;96650.34;;;3.24;100.00
55149;BME280;49539;48.160;11.530;2022-11-27T10:01:21;96638.28;;;3.37;100.00
55149;BME280;49539;48.160;11.530;2022-11-27T10:03:48;96633.25;;;3.36;100.00
55149;BME280;49539;48.160;11.530;2022-11-27T10:18:56;96624.22;;;3.67;100.00
55149;BME280;49539;48.160;11.530;2022-11-27T10:21:30;96617.81;;;3.75;100.00
55149;BME280;49539;48.160;11.530;2022-11-27T10:26:30;96609.78;;;3.56;100.00
55149;BME280;49539;48.160;11.530;2022-11-27T10:29:03;96607.94;;;3.83;100.00
55149;BME280;49539;48.160;11.530;2022-11-27T10:31:36;96598.34;;;4.08;100.00
55149;BME280;49539;48.160;11.530;2022-11-27T10:34:04;96591.88;;;4.13;100.00
55149;BME280;49539;48.160;11.530;2022-11-27T10:36:42;96588.69;;;4.07;100.00
55149;BME280;49539;48.160;11.530;2022-11-27T10:39:14;96594.25;;;3.95;100.00
55149;BME280;49539;48.160;11.530;2022-11-27T10:41:53;96594.09;;;3.84;100.00
55149;BME280;49539;48.160;11.530;2022-11-27T10:44:34;96585.22;;;4.07;100.00
55149;BME280;49539;48.160;11.530;2022-11-27T10:47:06;96570.72;;;4.15;100.00
55149;BME280;49539;48.160;11.530;2022-11-27T10:49:33;96574.66;;;4.74;100.00
55149;BME280;49539;48.160;11.530;2022-11-27T10:51:59;96568.69;;;4.91;100.00
55149;BME280;49539;48.160;11.530;2022-11-27T10:54:26;96565.31;;;4.98;100.00
55149;BME280;49539;48.160;11.530;2022-11-27T10:57:07;96569.47;;;4.92;100.00
55149;BME280;49539;48.160;11.530;2022-11-27T10:59:38;96569.25;;;4.74;100.00
55149;BME280;49539;48.160;11.530;2022-11-27T11:02:24;96571.84;;;4.97;100.00
55149;BME280;49539;48.160;11.530;2022-11-27T11:04:49;96564.47;;;5.28;100.00
55149;BME280;49539;48.160;11.530;2022-11-27T11:07:22;96560.38;;;5.41;100.00
55149;BME280;49539;48.160;11.530;2022-11-27T11:09:48;96560.09;;;5.53;100.00
55149;BME280;49539;48.160;11.530;2022-11-27T11:12:17;96557.75;;;5.48;100.00
55149;BME280;49539;48.160;11.530;2022-11-27T11:14:54;96564.19;;;5.77;100.00
55149;BME280;49539;48.160;11.530;2022-11-27T11:17:27;96562.13;;;5.63;100.00
55149;BME280;49539;48.160;11.530;2022-11-27T11:19:53;96556.22;;;5.51;100.00
55149;BME280;49539;48.160;11.530;2022-11-27T11:22:18;96574.03;;;5.59;100.00
55149;BME280;49539;48.160;11.530;2022-11-27T11:24:50;96577.41;;;5.86;100.00
55149;BME280;49539;48.160;11.530;2022-11-27T11:27:23;96564.41;;;5.99;100.00
55149;BME280;49539;48.160;11.530;2022-11-27T11:29:51;96560.06;;;5.90;100.00
55149;BME280;49539;48.160;11.530;2022-11-27T11:32:22;96557.31;;;5.87;100.00
55149;BME280;49539;48.160;11.530;2022-11-27T11:34:50;96550.16;;;5.23;100.00
55149;BME280;49539;48.160;11.530;2022-11-27T11:42:23;96556.78;;;6.11;100.00
55149;BME280;49539;48.160;11.530;2022-11-27T11:44:50;96553.91;;;6.45;100.00
55149;BME280;49539;48.160;11.530;2022-11-27T11:47:17;96556.72;;;6.63;100.00
55149;BME280;49539;48.160;11.530;2022-11-27T11:49:42;96555.22;;;6.72;100.00
55149;BME280;49539;48.160;11.530;2022-11-27T11:52:42;96552.25;;;6.95;100.00
55149;BME280;49539;48.160;11.530;2022-11-27T11:55:02;96549.41;;;6.67;100.00
55149;BME280;49539;48.160;11.530;2022-11-27T12:00:17;96544.28;;;6.51;100.00
55149;BME280;49539;48.160;11.530;2022-11-27T12:02:52;96549.50;;;6.19;100.00
55149;BME280;49539;48.160;11.530;2022-11-27T12:10:19;96532.47;;;6.84;100.00
55149;BME280;49539;48.160;11.530;2022-11-27T12:15:18;96520.28;;;8.08;100.00
55149;BME280;49539;48.160;11.530;2022-11-27T12:22:49;96524.56;;;7.70;100.00
55149;BME280;49539;48.160;11.530;2022-11-27T12:43:43;96486.41;;;6.08;100.00
55149;BME280;49539;48.160;11.530;2022-11-27T12:46:12;96494.22;;;5.68;100.00
55149;BME280;49539;48.160;11.530;2022-11-27T12:51:26;96501.28;;;4.98;100.00
55149;BME280;49539;48.160;11.530;2022-11-27T12:56:49;96489.31;;;4.32;100.00
55149;BME280;49539;48.160;11.530;2022-11-27T12:59:27;96484.75;;;4.40;100.00
55149;BME280;49539;48.160;11.530;2022-11-27T13:04:33;96483.59;;;3.84;100.00
55149;BME280;49539;48.160;11.530;2022-11-27T13:07:05;96485.47;;;3.57;100.00
55149;BME280;49539;48.160;11.530;2022-11-27T13:09:48;96485.56;;;3.38;100.00
55149;BME280;49539;48.160;11.530;2022-11-27T13:12:26;96471.19;;;3.53;100.00
55149;BME280;49539;48.160;11.530;2022-11-27T13:14:57;96487.28;;;3.27;100.00
55149;BME280;49539;48.160;11.530;2022-11-27T13:17:24;96470.84;;;3.32;100.00
55149;BME280;49539;48.160;11.530;2022-11-27T13:19:53;96482.28;;;3.25;100.00
55149;BME280;49539;48.160;11.530;2022-11-27T13:22:21;96482.03;;;3.34;100.00
55149;BME280;49539;48.160;11.530;2022-11-27T13:24:51;96479.69;;;3.09;100.00
55149;BME280;49539;48.160;11.530;2022-11-27T13:27:20;96482.63;;;3.01;100.00
55149;BME280;49539;48.160;11.530;2022-11-27T13:34:52;96473.63;;;2.93;100.00
55149;BME280;49539;48.160;11.530;2022-11-27T13:37:35;96462.44;;;2.91;100.00
55149;BME280;49539;48.160;11.530;2022-11-27T13:42:32;96466.56;;;3.08;100.00
55149;BME280;49539;48.160;11.530;2022-11-27T13:45:03;96457.78;;;3.11;100.00
55149;BME280;49539;48.160;11.530;2022-11-27T13:47:34;96459.44;;;2.96;100.00
55149;BME280;49539;48.160;11.530;2022-11-27T13:50:05;96461.88;;;2.82;100.00
55149;BME280;49539;48.160;11.530;2022-11-27T13:52:31;96472.84;;;2.92;100.00
55149;BME280;49539;48.160;11.530;2022-11-27T13:54:58;96456.91;;;2.84;100.00
55149;BME280;49539;48.160;11.530;2022-11-27T13:57:24;96458.00;;;2.60;100.00
55149;BME280;49539;48.160;11.530;2022-11-27T14:02:38;96455.94;;;2.34;100.00
55149;BME280;49539;48.160;11.530;2022-11-27T14:05:04;96443.09;;;2.43;100.00
55149;BME280;49539;48.160;11.530;2022-11-27T14:07:34;96446.91;;;2.61;100.00
55149;BME280;49539;48.160;11.530;2022-11-27T14:10:08;96442.69;;;2.83;100.00
55149;BME280;49539;48.160;11.530;2022-11-27T14:12:34;96445.19;;;2.72;100.00
55149;BME280;49539;48.160;11.530;2022-11-27T14:17:36;96439.28;;;2.86;100.00
55149;BME280;49539;48.160;11.530;2022-11-27T14:22:42;96432.38;;;2.66;100.00
55149;BME280;49539;48.160;11.530;2022-11-27T14:25:24;96432.84;;;2.71;100.00
55149;BME280;49539;48.160;11.530;2022-11-27T14:30:26;96435.28;;;2.77;100.00
55149;BME280;49539;48.160;11.530;2022-11-27T14:32:53;96429.69;;;2.66;100.00
55149;BME280;49539;48.160;11.530;2022-11-27T14:35:22;96439.91;;;2.80;100.00
55149;BME280;49539;48.160;11.530;2022-11-27T14:37:47;96437.75;;;2.66;100.00
55149;BME280;49539;48.160;11.530;2022-11-27T14:40:13;96441.94;;;2.44;100.00
55149;BME280;49539;48.160;11.530;2022-11-27T14:42:39;96429.53;;;2.59;100.00